sensor_id;sensor_type;location;lat;lon;timestamp;temperature;humidity
15967;DHT22;15175;48.154;11.534;2023-05-09T00:01:32;13.80;99.90
15967;DHT22;15175;48.154;11.534;2023-05-09T00:04:00;13.80;99.90
15967;DHT22;15175;48.154;11.534;2023-05-09T00:06:27;13.70;99.90
15967;DHT22;15175;48.154;11.534;2023-05-09T00:08:55;13.70;99.90
15967;DHT22;15175;48.154;11.534;2023-05-09T00:11:22;13.70;99.90
15967;DHT22;15175;48.154;11.534;2023-05-09T00:13:49;13.60;99.90
15967;DHT22;15175;48.154;11.534;2023-05-09T00:16:18;13.60;99.90
15967;DHT22;15175;48.154;11.534;2023-05-09T00:18:46;13.60;99.90
15967;DHT22;15175;48.154;11.534;2023-05-09T00:21:13;13.60;99.90
15967;DHT22;15175;48.154;11.534;2023-05-09T00:23:40;13.60;99.90
15967;DHT22;15175;48.154;11.534;2023-05-09T00:26:08;13.60;99.90
15967;DHT22;15175;48.154;11.534;2023-05-09T00:28:37;13.60;99.90
15967;DHT22;15175;48.154;11.534;2023-05-09T00:31:04;13.60;99.90
15967;DHT22;15175;48.154;11.534;2023-05-09T00:33:31;13.60;99.90
15967;DHT22;15175;48.154;11.534;2023-05-09T00:35:58;13.50;99.90
15967;DHT22;15175;48.154;11.534;2023-05-09T00:38:25;13.50;99.90
15967;DHT22;15175;48.154;11.534;2023-05-09T00:40:52;13.50;99.90
15967;DHT22;15175;48.154;11.534;2023-05-09T00:43:21;13.60;99.90
15967;DHT22;15175;48.154;11.534;2023-05-09T00:45:49;13.60;99.90
15967;DHT22;15175;48.154;11.534;2023-05-09T00:48:16;13.60;99.90
15967;DHT22;15175;48.154;11.534;2023-05-09T00:50:43;13.60;99.90
15967;DHT22;15175;48.154;11.534;2023-05-09T00:53:12;13.60;99.90
15967;DHT22;15175;48.154;11.534;2023-05-09T00:55:39;13.60;99.90
15967;DHT22;15175;48.154;11.534;2023-05-09T00:58:06;13.60;99.90
15967;DHT22;15175;48.154;11.534;2023-05-09T01:00:35;13.60;99.90
15967;DHT22;15175;48.154;11.534;2023-05-09T01:03:33;13.60;99.90
15967;DHT22;15175;48.154;11.534;2023-05-09T01:06:04;13.60;99.90
15967;DHT22;15175;48.154;11.534;2023-05-09T01:08:40;13.60;99.90
15967;DHT22;15175;48.154;11.534;2023-05-09T01:11:12;13.50;99.90
15967;DHT22;15175;48.154;11.534;2023-05-09T01:13:51;13.50;99.90
15967;DHT22;15175;48.154;11.534;2023-05-09T01:16:31;13.50;99.90
15967;DHT22;15175;48.154;11.534;2023-05-09T01:19:04;13.50;99.90
15967;DHT22;15175;48.154;11.534;2023-05-09T01:21:37;13.50;99.90
15967;DHT22;15175;48.154;11.534;2023-05-09T01:24:24;13.40;99.90
15967;DHT22;15175;48.154;11.534;2023-05-09T01:27:11;13.40;99.90
15967;DHT22;15175;48.154;11.534;2023-05-09T01:29:44;13.20;99.90
15967;DHT22;15175;48.154;11.534;2023-05-09T01:32:21;13.20;99.90
15967;DHT22;15175;48.154;11.534;2023-05-09T01:34:50;13.10;99.90
15967;DHT22;15175;48.154;11.534;2023-05-09T01:37:22;12.90;99.90
15967;DHT22;15175;48.154;11.534;2023-05-09T01:39:52;12.90;99.90
15967;DHT22;15175;48.154;11.534;2023-05-09T01:42:22;12.80;99.90
15967;DHT22;15175;48.154;11.534;2023-05-09T01:44:53;12.80;99.90
15967;DHT22;15175;48.154;11.534;2023-05-09T01:47:20;12.80;99.90
15967;DHT22;15175;48.154;11.534;2023-05-09T01:49:49;12.80;99.90
15967;DHT22;15175;48.154;11.534;2023-05-09T01:52:19;12.70;99.90
15967;DHT22;15175;48.154;11.534;2023-05-09T01:54:47;12.70;99.90
15967;DHT22;15175;48.154;11.534;2023-05-09T01:57:17;12.70;99.90
15967;DHT22;15175;48.154;11.534;2023-05-09T01:59:45;12.70;99.90
15967;DHT22;15175;48.154;11.534;2023-05-09T02:02:15;12.80;99.90
15967;DHT22;15175;48.154;11.534;2023-05-09T02:04:43;12.80;99.90
15967;DHT22;15175;48.154;11.534;2023-05-09T02:07:11;12.80;99.90
15967;DHT22;15175;48.154;11.534;2023-05-09T02:09:39;12.80;99.90
15967;DHT22;15175;48.154;11.534;2023-05-09T02:12:06;12.70;99.90
15967;DHT22;15175;48.154;11.534;2023-05-09T02:14:33;12.70;99.90
15967;DHT22;15175;48.154;11.534;2023-05-09T02:17:00;12.70;99.90
15967;DHT22;15175;48.154;11.534;2023-05-09T02:19:34;12.70;99.90
15967;DHT22;15175;48.154;11.534;2023-05-09T02:22:02;12.60;99.90
15967;DHT22;15175;48.154;11.534;2023-05-09T02:24:31;12.40;99.90
15967;DHT22;15175;48.154;11.534;2023-05-09T02:26:59;12.30;99.90
15967;DHT22;15175;48.154;11.534;2023-05-09T02:29:30;12.30;99.90
15967;DHT22;15175;48.154;11.534;2023-05-09T02:32:07;12.10;99.90
15967;DHT22;15175;48.154;11.534;2023-05-09T02:34:36;12.00;99.90
15967;DHT22;15175;48.154;11.534;2023-05-09T02:37:04;12.00;99.90
15967;DHT22;15175;48.154;11.534;2023-05-09T02:39:34;12.00;99.90
15967;DHT22;15175;48.154;11.534;2023-05-09T02:42:05;12.00;99.90
15967;DHT22;15175;48.154;11.534;2023-05-09T02:44:32;12.10;99.90
15967;DHT22;15175;48.154;11.534;2023-05-09T02:47:00;12.10;99.90
15967;DHT22;15175;48.154;11.534;2023-05-09T02:49:27;12.00;99.90
15967;DHT22;15175;48.154;11.534;2023-05-09T02:51:56;12.00;99.90
15967;DHT22;15175;48.154;11.534;2023-05-09T02:54:23;12.00;99.90
15967;DHT22;15175;48.154;11.534;2023-05-09T02:56:50;11.90;99.90
15967;DHT22;15175;48.154;11.534;2023-05-09T02:59:17;11.90;99.90
15967;DHT22;15175;48.154;11.534;2023-05-09T03:01:45;11.90;99.90
15967;DHT22;15175;48.154;11.534;2023-05-09T03:04:12;11.80;99.90
15967;DHT22;15175;48.154;11.534;2023-05-09T03:06:39;11.90;99.90
15967;DHT22;15175;48.154;11.534;2023-05-09T03:09:08;11.90;99.90
15967;DHT22;15175;48.154;11.534;2023-05-09T03:11:35;11.90;99.90
15967;DHT22;15175;48.154;11.534;2023-05-09T03:14:02;11.90;99.90
15967;DHT22;15175;48.154;11.534;2023-05-09T03:16:30;11.90;99.90
15967;DHT22;15175;48.154;11.534;2023-05-09T03:18:58;12.00;99.90
15967;DHT22;15175;48.154;11.534;2023-05-09T03:21:25;12.00;99.90
15967;DHT22;15175;48.154;11.534;2023-05-09T03:23:52;12.10;99.90
15967;DHT22;15175;48.154;11.534;2023-05-09T03:26:20;12.10;99.90
15967;DHT22;15175;48.154;11.534;2023-05-09T03:28:48;12.10;99.90
15967;DHT22;15175;48.154;11.534;2023-05-09T03:31:15;12.10;99.90
15967;DHT22;15175;48.154;11.534;2023-05-09T03:33:42;12.20;99.90
15967;DHT22;15175;48.154;11.534;2023-05-09T03:36:09;12.10;99.90
15967;DHT22;15175;48.154;11.534;2023-05-09T03:38:39;12.10;99.90
15967;DHT22;15175;48.154;11.534;2023-05-09T03:41:06;12.10;99.90
15967;DHT22;15175;48.154;11.534;2023-05-09T03:43:35;12.10;99.90
15967;DHT22;15175;48.154;11.534;2023-05-09T03:46:02;12.10;99.90
15967;DHT22;15175;48.154;11.534;2023-05-09T03:48:30;12.10;99.90
15967;DHT22;15175;48.154;11.534;2023-05-09T03:50:57;12.10;99.90
15967;DHT22;15175;48.154;11.534;2023-05-09T03:53:27;12.10;99.90
15967;DHT22;15175;48.154;11.534;2023-05-09T03:55:54;12.00;99.90
15967;DHT22;15175;48.154;11.534;2023-05-09T03:58:22;12.00;99.90
15967;DHT22;15175;48.154;11.534;2023-05-09T04:00:51;12.00;99.90
15967;DHT22;15175;48.154;11.534;2023-05-09T04:03:24;12.00;99.90
15967;DHT22;15175;48.154;11.534;2023-05-09T04:05:53;12.00;99.90
15967;DHT22;15175;48.154;11.534;2023-05-09T04:08:30;12.00;99.90
15967;DHT22;15175;48.154;11.534;2023-05-09T04:10:58;12.00;99.90
15967;DHT22;15175;48.154;11.534;2023-05-09T04:13:25;12.00;99.90
15967;DHT22;15175;48.154;11.534;2023-05-09T04:15:54;12.00;99.90
15967;DHT22;15175;48.154;11.534;2023-05-09T04:18:22;12.00;99.90
15967;DHT22;15175;48.154;11.534;2023-05-09T04:20:49;12.00;99.90
15967;DHT22;15175;48.154;11.534;2023-05-09T04:23:16;12.00;99.90
15967;DHT22;15175;48.154;11.534;2023-05-09T04:25:43;11.90;99.90
15967;DHT22;15175;48.154;11.534;2023-05-09T04:28:11;11.90;99.90
15967;DHT22;15175;48.154;11.534;2023-05-09T04:30:38;11.80;99.90
15967;DHT22;15175;48.154;11.534;2023-05-09T04:33:07;11.70;99.90
15967;DHT22;15175;48.154;11.534;2023-05-09T04:35:34;11.70;99.90
15967;DHT22;15175;48.154;11.534;2023-05-09T04:38:01;11.60;99.90
15967;DHT22;15175;48.154;11.534;2023-05-09T04:40:29;11.50;99.90
15967;DHT22;15175;48.154;11.534;2023-05-09T04:42:59;11.50;99.90
15967;DHT22;15175;48.154;11.534;2023-05-09T04:45:29;11.50;99.90
15967;DHT22;15175;48.154;11.534;2023-05-09T04:47:57;11.50;99.90
15967;DHT22;15175;48.154;11.534;2023-05-09T04:50:26;11.40;99.90
15967;DHT22;15175;48.154;11.534;2023-05-09T04:52:53;11.40;99.90
15967;DHT22;15175;48.154;11.534;2023-05-09T04:55:20;11.30;99.90
15967;DHT22;15175;48.154;11.534;2023-05-09T04:57:48;11.40;99.90
15967;DHT22;15175;48.154;11.534;2023-05-09T05:00:16;11.50;99.90
15967;DHT22;15175;48.154;11.534;2023-05-09T05:02:45;11.50;99.90
15967;DHT22;15175;48.154;11.534;2023-05-09T05:05:12;11.50;99.90
15967;DHT22;15175;48.154;11.534;2023-05-09T05:07:43;11.60;99.90
15967;DHT22;15175;48.154;11.534;2023-05-09T05:10:14;11.70;99.90
15967;DHT22;15175;48.154;11.534;2023-05-09T05:12:46;11.70;99.90
15967;DHT22;15175;48.154;11.534;2023-05-09T05:15:14;11.80;99.90
15967;DHT22;15175;48.154;11.534;2023-05-09T05:17:44;11.80;99.90
15967;DHT22;15175;48.154;11.534;2023-05-09T05:20:12;11.80;99.90
15967;DHT22;15175;48.154;11.534;2023-05-09T05:22:45;11.80;99.90
15967;DHT22;15175;48.154;11.534;2023-05-09T05:25:12;11.80;99.90
15967;DHT22;15175;48.154;11.534;2023-05-09T05:27:40;11.80;99.90
15967;DHT22;15175;48.154;11.534;2023-05-09T05:30:11;11.90;99.90
15967;DHT22;15175;48.154;11.534;2023-05-09T05:32:40;12.00;99.90
15967;DHT22;15175;48.154;11.534;2023-05-09T05:35:09;12.10;99.90
15967;DHT22;15175;48.154;11.534;2023-05-09T05:37:37;12.20;99.90
15967;DHT22;15175;48.154;11.534;2023-05-09T05:40:07;12.30;99.90
15967;DHT22;15175;48.154;11.534;2023-05-09T05:42:37;12.50;99.90
15967;DHT22;15175;48.154;11.534;2023-05-09T05:45:05;12.60;99.90
15967;DHT22;15175;48.154;11.534;2023-05-09T05:47:37;12.80;99.90
15967;DHT22;15175;48.154;11.534;2023-05-09T05:50:06;13.10;99.90
15967;DHT22;15175;48.154;11.534;2023-05-09T05:52:36;13.30;99.90
15967;DHT22;15175;48.154;11.534;2023-05-09T05:55:06;13.50;99.90
15967;DHT22;15175;48.154;11.534;2023-05-09T05:57:34;13.70;99.90
15967;DHT22;15175;48.154;11.534;2023-05-09T06:00:05;13.90;99.90
15967;DHT22;15175;48.154;11.534;2023-05-09T06:02:41;14.20;99.90
15967;DHT22;15175;48.154;11.534;2023-05-09T06:05:10;14.40;99.90
15967;DHT22;15175;48.154;11.534;2023-05-09T06:07:38;14.60;99.90
15967;DHT22;15175;48.154;11.534;2023-05-09T06:10:07;14.70;99.90
15967;DHT22;15175;48.154;11.534;2023-05-09T06:12:35;14.90;99.90
15967;DHT22;15175;48.154;11.534;2023-05-09T06:15:02;15.10;99.90
15967;DHT22;15175;48.154;11.534;2023-05-09T06:17:32;15.30;99.90
15967;DHT22;15175;48.154;11.534;2023-05-09T06:20:00;15.50;99.90
15967;DHT22;15175;48.154;11.534;2023-05-09T06:22:27;15.60;99.90
15967;DHT22;15175;48.154;11.534;2023-05-09T06:24:54;15.80;99.90
15967;DHT22;15175;48.154;11.534;2023-05-09T06:27:23;16.10;99.90
15967;DHT22;15175;48.154;11.534;2023-05-09T06:29:50;16.20;99.90
15967;DHT22;15175;48.154;11.534;2023-05-09T06:32:18;16.30;99.90
15967;DHT22;15175;48.154;11.534;2023-05-09T06:34:45;16.50;99.90
15967;DHT22;15175;48.154;11.534;2023-05-09T06:37:12;16.80;99.90
15967;DHT22;15175;48.154;11.534;2023-05-09T06:39:40;17.00;99.90
15967;DHT22;15175;48.154;11.534;2023-05-09T06:42:07;17.10;99.90
15967;DHT22;15175;48.154;11.534;2023-05-09T06:44:38;17.30;99.90
15967;DHT22;15175;48.154;11.534;2023-05-09T06:47:05;17.50;99.90
15967;DHT22;15175;48.154;11.534;2023-05-09T06:49:32;17.60;99.90
15967;DHT22;15175;48.154;11.534;2023-05-09T06:51:59;17.70;99.90
15967;DHT22;15175;48.154;11.534;2023-05-09T06:54:26;17.90;99.90
15967;DHT22;15175;48.154;11.534;2023-05-09T06:56:54;18.00;99.90
15967;DHT22;15175;48.154;11.534;2023-05-09T06:59:21;18.10;99.90
15967;DHT22;15175;48.154;11.534;2023-05-09T07:01:49;18.10;99.90
15967;DHT22;15175;48.154;11.534;2023-05-09T07:04:16;18.10;99.90
15967;DHT22;15175;48.154;11.534;2023-05-09T07:06:43;18.10;99.90
15967;DHT22;15175;48.154;11.534;2023-05-09T07:09:10;18.00;99.90
15967;DHT22;15175;48.154;11.534;2023-05-09T07:11:39;18.10;99.90
15967;DHT22;15175;48.154;11.534;2023-05-09T07:14:07;18.20;99.90
15967;DHT22;15175;48.154;11.534;2023-05-09T07:16:34;18.20;99.90
15967;DHT22;15175;48.154;11.534;2023-05-09T07:19:02;18.30;99.90
15967;DHT22;15175;48.154;11.534;2023-05-09T07:21:29;18.40;99.90
15967;DHT22;15175;48.154;11.534;2023-05-09T07:23:58;18.30;99.90
15967;DHT22;15175;48.154;11.534;2023-05-09T07:26:25;18.20;99.90
15967;DHT22;15175;48.154;11.534;2023-05-09T07:28:52;18.20;99.90
15967;DHT22;15175;48.154;11.534;2023-05-09T07:31:20;18.20;99.90
15967;DHT22;15175;48.154;11.534;2023-05-09T07:33:47;18.20;99.90
15967;DHT22;15175;48.154;11.534;2023-05-09T07:36:15;18.00;99.90
15967;DHT22;15175;48.154;11.534;2023-05-09T07:38:42;18.00;99.90
15967;DHT22;15175;48.154;11.534;2023-05-09T07:41:09;18.10;99.90
15967;DHT22;15175;48.154;11.534;2023-05-09T07:43:36;18.20;99.90
15967;DHT22;15175;48.154;11.534;2023-05-09T07:46:03;18.10;99.90
15967;DHT22;15175;48.154;11.534;2023-05-09T07:48:31;18.00;99.90
15967;DHT22;15175;48.154;11.534;2023-05-09T07:50:58;18.00;99.90
15967;DHT22;15175;48.154;11.534;2023-05-09T07:53:26;18.10;99.90
15967;DHT22;15175;48.154;11.534;2023-05-09T07:55:53;18.20;99.90
15967;DHT22;15175;48.154;11.534;2023-05-09T07:58:20;18.50;99.90
15967;DHT22;15175;48.154;11.534;2023-05-09T08:00:47;18.70;99.90
15967;DHT22;15175;48.154;11.534;2023-05-09T08:03:14;18.90;99.90
15967;DHT22;15175;48.154;11.534;2023-05-09T08:05:41;19.10;99.90
15967;DHT22;15175;48.154;11.534;2023-05-09T08:08:08;19.20;99.90
15967;DHT22;15175;48.154;11.534;2023-05-09T08:10:37;19.20;99.90
15967;DHT22;15175;48.154;11.534;2023-05-09T08:13:04;19.20;99.90
15967;DHT22;15175;48.154;11.534;2023-05-09T08:15:31;19.20;99.90
15967;DHT22;15175;48.154;11.534;2023-05-09T08:17:58;19.10;99.90
15967;DHT22;15175;48.154;11.534;2023-05-09T08:20:25;19.10;99.90
15967;DHT22;15175;48.154;11.534;2023-05-09T08:22:52;19.20;99.90
15967;DHT22;15175;48.154;11.534;2023-05-09T08:25:19;19.40;99.90
15967;DHT22;15175;48.154;11.534;2023-05-09T08:27:48;19.70;99.90
15967;DHT22;15175;48.154;11.534;2023-05-09T08:30:15;20.00;99.90
15967;DHT22;15175;48.154;11.534;2023-05-09T08:32:42;20.30;99.90
15967;DHT22;15175;48.154;11.534;2023-05-09T08:35:09;20.60;99.90
15967;DHT22;15175;48.154;11.534;2023-05-09T08:37:36;20.70;99.90
15967;DHT22;15175;48.154;11.534;2023-05-09T08:40:04;20.90;99.90
15967;DHT22;15175;48.154;11.534;2023-05-09T08:45:05;21.50;99.90
15967;DHT22;15175;48.154;11.534;2023-05-09T08:47:34;21.70;99.90
15967;DHT22;15175;48.154;11.534;2023-05-09T08:50:02;22.00;99.90
15967;DHT22;15175;48.154;11.534;2023-05-09T08:52:29;22.20;99.90
15967;DHT22;15175;48.154;11.534;2023-05-09T08:54:56;22.40;99.90
15967;DHT22;15175;48.154;11.534;2023-05-09T08:57:23;22.50;99.90
15967;DHT22;15175;48.154;11.534;2023-05-09T08:59:52;22.70;99.90
15967;DHT22;15175;48.154;11.534;2023-05-09T09:02:20;22.90;99.90
15967;DHT22;15175;48.154;11.534;2023-05-09T09:04:47;23.00;99.90
15967;DHT22;15175;48.154;11.534;2023-05-09T09:07:14;23.30;99.90
15967;DHT22;15175;48.154;11.534;2023-05-09T09:09:43;23.50;99.90
15967;DHT22;15175;48.154;11.534;2023-05-09T09:12:14;23.70;99.10
15967;DHT22;15175;48.154;11.534;2023-05-09T09:14:45;23.70;98.70
15967;DHT22;15175;48.154;11.534;2023-05-09T09:17:17;23.70;98.60
15967;DHT22;15175;48.154;11.534;2023-05-09T09:19:48;23.70;98.80
15967;DHT22;15175;48.154;11.534;2023-05-09T09:22:18;23.70;99.20
15967;DHT22;15175;48.154;11.534;2023-05-09T09:24:45;23.90;98.40
15967;DHT22;15175;48.154;11.534;2023-05-09T09:27:12;23.80;98.90
15967;DHT22;15175;48.154;11.534;2023-05-09T09:29:39;24.10;99.40
15967;DHT22;15175;48.154;11.534;2023-05-09T09:32:06;24.30;99.30
15967;DHT22;15175;48.154;11.534;2023-05-09T09:34:34;24.50;97.40
15967;DHT22;15175;48.154;11.534;2023-05-09T09:37:02;24.60;98.00
15967;DHT22;15175;48.154;11.534;2023-05-09T09:39:31;24.90;98.30
15967;DHT22;15175;48.154;11.534;2023-05-09T09:42:09;24.90;96.70
15967;DHT22;15175;48.154;11.534;2023-05-09T09:44:36;24.80;96.60
15967;DHT22;15175;48.154;11.534;2023-05-09T09:47:03;24.80;97.20
15967;DHT22;15175;48.154;11.534;2023-05-09T09:49:36;24.80;96.80
15967;DHT22;15175;48.154;11.534;2023-05-09T09:52:05;25.00;97.40
15967;DHT22;15175;48.154;11.534;2023-05-09T09:54:32;25.20;96.00
15967;DHT22;15175;48.154;11.534;2023-05-09T09:56:59;25.30;96.10
15967;DHT22;15175;48.154;11.534;2023-05-09T09:59:26;25.10;96.10
15967;DHT22;15175;48.154;11.534;2023-05-09T10:01:55;25.10;95.90
15967;DHT22;15175;48.154;11.534;2023-05-09T10:04:23;25.10;95.90
15967;DHT22;15175;48.154;11.534;2023-05-09T10:06:54;25.20;96.40
15967;DHT22;15175;48.154;11.534;2023-05-09T10:09:23;25.50;96.20
15967;DHT22;15175;48.154;11.534;2023-05-09T10:11:51;25.80;95.60
15967;DHT22;15175;48.154;11.534;2023-05-09T10:14:22;25.90;94.80
15967;DHT22;15175;48.154;11.534;2023-05-09T10:16:53;26.00;95.70
15967;DHT22;15175;48.154;11.534;2023-05-09T10:19:21;26.20;94.90
15967;DHT22;15175;48.154;11.534;2023-05-09T10:21:52;26.10;95.10
15967;DHT22;15175;48.154;11.534;2023-05-09T10:24:25;26.30;95.00
15967;DHT22;15175;48.154;11.534;2023-05-09T10:26:58;26.40;95.20
15967;DHT22;15175;48.154;11.534;2023-05-09T10:29:34;26.60;94.90
15967;DHT22;15175;48.154;11.534;2023-05-09T10:32:09;26.80;94.90
15967;DHT22;15175;48.154;11.534;2023-05-09T10:34:39;27.00;94.10
15967;DHT22;15175;48.154;11.534;2023-05-09T10:37:08;26.70;93.40
15967;DHT22;15175;48.154;11.534;2023-05-09T10:39:37;26.60;94.00
15967;DHT22;15175;48.154;11.534;2023-05-09T10:42:04;26.60;93.40
15967;DHT22;15175;48.154;11.534;2023-05-09T10:44:33;26.30;93.80
15967;DHT22;15175;48.154;11.534;2023-05-09T10:47:01;26.30;94.00
15967;DHT22;15175;48.154;11.534;2023-05-09T10:49:29;26.10;93.90
15967;DHT22;15175;48.154;11.534;2023-05-09T10:51:56;25.80;94.00
15967;DHT22;15175;48.154;11.534;2023-05-09T10:54:27;25.80;94.60
15967;DHT22;15175;48.154;11.534;2023-05-09T10:56:56;25.50;94.70
15967;DHT22;15175;48.154;11.534;2023-05-09T10:59:32;25.10;95.20
15967;DHT22;15175;48.154;11.534;2023-05-09T11:02:00;24.90;96.00
15967;DHT22;15175;48.154;11.534;2023-05-09T11:04:28;24.80;95.80
15967;DHT22;15175;48.154;11.534;2023-05-09T11:06:55;24.80;95.80
15967;DHT22;15175;48.154;11.534;2023-05-09T11:09:30;24.80;95.90
15967;DHT22;15175;48.154;11.534;2023-05-09T11:12:06;24.90;95.50
15967;DHT22;15175;48.154;11.534;2023-05-09T11:14:38;24.90;96.10
15967;DHT22;15175;48.154;11.534;2023-05-09T11:17:07;25.00;95.60
15967;DHT22;15175;48.154;11.534;2023-05-09T11:19:37;24.90;95.60
15967;DHT22;15175;48.154;11.534;2023-05-09T11:22:13;24.90;95.60
15967;DHT22;15175;48.154;11.534;2023-05-09T11:24:44;24.80;95.70
15967;DHT22;15175;48.154;11.534;2023-05-09T11:27:18;24.60;96.00
15967;DHT22;15175;48.154;11.534;2023-05-09T11:29:49;24.50;95.90
15967;DHT22;15175;48.154;11.534;2023-05-09T11:32:17;24.40;96.00
15967;DHT22;15175;48.154;11.534;2023-05-09T11:34:45;24.30;96.20
15967;DHT22;15175;48.154;11.534;2023-05-09T11:37:14;24.20;96.40
15967;DHT22;15175;48.154;11.534;2023-05-09T11:39:58;24.20;96.50
15967;DHT22;15175;48.154;11.534;2023-05-09T11:42:28;24.10;96.40
15967;DHT22;15175;48.154;11.534;2023-05-09T11:44:57;23.80;97.10
15967;DHT22;15175;48.154;11.534;2023-05-09T11:47:24;23.70;97.10
15967;DHT22;15175;48.154;11.534;2023-05-09T11:49:53;23.80;97.40
15967;DHT22;15175;48.154;11.534;2023-05-09T11:52:21;24.10;97.30
15967;DHT22;15175;48.154;11.534;2023-05-09T11:54:48;24.20;96.70
15967;DHT22;15175;48.154;11.534;2023-05-09T11:57:15;24.30;96.50
15967;DHT22;15175;48.154;11.534;2023-05-09T11:59:44;24.40;96.40
15967;DHT22;15175;48.154;11.534;2023-05-09T12:02:12;24.30;96.50
15967;DHT22;15175;48.154;11.534;2023-05-09T12:04:39;24.40;96.80
15967;DHT22;15175;48.154;11.534;2023-05-09T12:07:06;24.50;97.00
15967;DHT22;15175;48.154;11.534;2023-05-09T12:09:34;24.70;96.20
15967;DHT22;15175;48.154;11.534;2023-05-09T12:12:08;24.70;96.30
15967;DHT22;15175;48.154;11.534;2023-05-09T12:14:37;24.60;96.30
15967;DHT22;15175;48.154;11.534;2023-05-09T12:17:06;24.30;96.30
15967;DHT22;15175;48.154;11.534;2023-05-09T12:19:34;23.90;96.60
15967;DHT22;15175;48.154;11.534;2023-05-09T12:22:04;23.60;97.10
15967;DHT22;15175;48.154;11.534;2023-05-09T12:24:34;23.40;97.40
15967;DHT22;15175;48.154;11.534;2023-05-09T12:27:02;23.20;97.50
15967;DHT22;15175;48.154;11.534;2023-05-09T12:29:32;23.10;97.80
15967;DHT22;15175;48.154;11.534;2023-05-09T12:32:00;23.00;98.00
15967;DHT22;15175;48.154;11.534;2023-05-09T12:34:28;23.00;98.20
15967;DHT22;15175;48.154;11.534;2023-05-09T12:36:56;23.20;98.20
15967;DHT22;15175;48.154;11.534;2023-05-09T12:39:24;23.30;98.10
15967;DHT22;15175;48.154;11.534;2023-05-09T12:41:51;23.50;98.00
15967;DHT22;15175;48.154;11.534;2023-05-09T12:44:23;23.50;97.50
15967;DHT22;15175;48.154;11.534;2023-05-09T12:46:58;23.50;97.50
15967;DHT22;15175;48.154;11.534;2023-05-09T12:49:25;23.40;97.90
15967;DHT22;15175;48.154;11.534;2023-05-09T12:51:57;23.40;97.80
15967;DHT22;15175;48.154;11.534;2023-05-09T12:54:25;23.40;98.00
15967;DHT22;15175;48.154;11.534;2023-05-09T12:56:55;23.50;97.80
15967;DHT22;15175;48.154;11.534;2023-05-09T12:59:24;23.40;97.90
15967;DHT22;15175;48.154;11.534;2023-05-09T13:01:52;23.10;98.20
15967;DHT22;15175;48.154;11.534;2023-05-09T13:04:21;23.10;98.50
15967;DHT22;15175;48.154;11.534;2023-05-09T13:06:49;23.30;98.70
15967;DHT22;15175;48.154;11.534;2023-05-09T13:09:18;23.40;98.10
15967;DHT22;15175;48.154;11.534;2023-05-09T13:11:45;23.40;98.20
15967;DHT22;15175;48.154;11.534;2023-05-09T13:14:13;23.40;98.10
15967;DHT22;15175;48.154;11.534;2023-05-09T13:16:40;23.40;98.00
15967;DHT22;15175;48.154;11.534;2023-05-09T13:19:07;23.20;98.30
15967;DHT22;15175;48.154;11.534;2023-05-09T13:21:35;23.10;98.60
15967;DHT22;15175;48.154;11.534;2023-05-09T13:24:02;23.10;98.40
15967;DHT22;15175;48.154;11.534;2023-05-09T13:26:31;23.10;98.30
15967;DHT22;15175;48.154;11.534;2023-05-09T13:28:58;22.80;98.40
15967;DHT22;15175;48.154;11.534;2023-05-09T13:31:25;22.80;98.60
15967;DHT22;15175;48.154;11.534;2023-05-09T13:33:53;22.80;98.60
15967;DHT22;15175;48.154;11.534;2023-05-09T13:36:20;22.60;98.70
15967;DHT22;15175;48.154;11.534;2023-05-09T13:38:47;22.70;98.60
15967;DHT22;15175;48.154;11.534;2023-05-09T13:41:14;22.60;98.60
15967;DHT22;15175;48.154;11.534;2023-05-09T13:43:46;22.50;98.70
15967;DHT22;15175;48.154;11.534;2023-05-09T13:46:13;22.50;98.90
15967;DHT22;15175;48.154;11.534;2023-05-09T13:48:40;22.40;98.80
15967;DHT22;15175;48.154;11.534;2023-05-09T13:51:09;22.50;98.80
15967;DHT22;15175;48.154;11.534;2023-05-09T13:53:36;22.50;98.80
15967;DHT22;15175;48.154;11.534;2023-05-09T13:56:05;22.70;98.80
15967;DHT22;15175;48.154;11.534;2023-05-09T13:58:32;22.80;98.30
15967;DHT22;15175;48.154;11.534;2023-05-09T14:01:00;22.80;98.10
15967;DHT22;15175;48.154;11.534;2023-05-09T14:03:28;22.80;98.20
15967;DHT22;15175;48.154;11.534;2023-05-09T14:05:56;22.70;98.20
15967;DHT22;15175;48.154;11.534;2023-05-09T14:08:23;22.70;98.30
15967;DHT22;15175;48.154;11.534;2023-05-09T14:10:50;22.70;98.50
15967;DHT22;15175;48.154;11.534;2023-05-09T14:13:17;22.70;98.20
15967;DHT22;15175;48.154;11.534;2023-05-09T14:15:45;22.70;97.90
15967;DHT22;15175;48.154;11.534;2023-05-09T14:18:14;22.60;98.40
15967;DHT22;15175;48.154;11.534;2023-05-09T14:20:41;22.50;98.40
15967;DHT22;15175;48.154;11.534;2023-05-09T14:23:08;22.40;98.40
15967;DHT22;15175;48.154;11.534;2023-05-09T14:25:35;22.20;98.70
15967;DHT22;15175;48.154;11.534;2023-05-09T14:28:02;22.20;98.80
15967;DHT22;15175;48.154;11.534;2023-05-09T14:30:31;22.20;98.90
15967;DHT22;15175;48.154;11.534;2023-05-09T14:33:00;22.10;98.70
15967;DHT22;15175;48.154;11.534;2023-05-09T14:35:29;22.10;98.90
15967;DHT22;15175;48.154;11.534;2023-05-09T14:37:58;22.10;98.90
15967;DHT22;15175;48.154;11.534;2023-05-09T14:40:25;22.20;98.70
15967;DHT22;15175;48.154;11.534;2023-05-09T14:42:56;22.10;98.60
15967;DHT22;15175;48.154;11.534;2023-05-09T14:45:23;22.00;98.50
15967;DHT22;15175;48.154;11.534;2023-05-09T14:47:51;22.10;98.80
15967;DHT22;15175;48.154;11.534;2023-05-09T14:50:19;22.00;98.70
15967;DHT22;15175;48.154;11.534;2023-05-09T14:52:48;22.00;98.80
15967;DHT22;15175;48.154;11.534;2023-05-09T14:55:15;21.90;98.60
15967;DHT22;15175;48.154;11.534;2023-05-09T14:57:43;21.80;98.60
15967;DHT22;15175;48.154;11.534;2023-05-09T15:00:11;21.80;98.70
15967;DHT22;15175;48.154;11.534;2023-05-09T15:02:39;21.70;98.50
15967;DHT22;15175;48.154;11.534;2023-05-09T15:05:07;21.60;98.50
15967;DHT22;15175;48.154;11.534;2023-05-09T15:07:34;21.60;98.70
15967;DHT22;15175;48.154;11.534;2023-05-09T15:10:03;21.50;98.50
15967;DHT22;15175;48.154;11.534;2023-05-09T15:12:30;21.50;98.70
15967;DHT22;15175;48.154;11.534;2023-05-09T15:15:05;21.50;98.70
15967;DHT22;15175;48.154;11.534;2023-05-09T15:17:37;21.50;98.70
15967;DHT22;15175;48.154;11.534;2023-05-09T15:20:05;21.40;98.60
15967;DHT22;15175;48.154;11.534;2023-05-09T15:22:32;21.40;98.70
15967;DHT22;15175;48.154;11.534;2023-05-09T15:24:59;21.30;98.70
15967;DHT22;15175;48.154;11.534;2023-05-09T15:27:28;21.30;98.80